createdAt,value
2022-08-23T00:00:13.183Z,1015.34
2022-08-23T00:01:10.390Z,1015.33
2022-08-23T00:02:11.496Z,1015.34
2022-08-23T00:03:12.895Z,1015.28
2022-08-23T00:04:12.080Z,1015.30
2022-08-23T00:05:12.238Z,1015.26
2022-08-23T00:06:13.730Z,1015.27
2022-08-23T00:07:12.680Z,1015.24
2022-08-23T00:08:13.362Z,1015.23
2022-08-23T00:09:13.587Z,1015.21
2022-08-23T00:10:13.769Z,1015.22
2022-08-23T00:11:15.301Z,1015.22
2022-08-23T00:12:14.167Z,1015.20
2022-08-23T00:13:12.958Z,1015.21
2022-08-23T00:14:15.122Z,1015.22
2022-08-23T00:15:15.311Z,1015.17
2022-08-23T00:16:15.842Z,1015.22
2022-08-23T00:17:33.618Z,1015.18
2022-08-23T00:18:15.347Z,1015.18
2022-08-23T00:19:16.561Z,1015.19
2022-08-23T00:20:16.751Z,1015.24
2022-08-23T00:21:17.153Z,1015.28
2022-08-23T00:22:15.434Z,1015.18
2022-08-23T00:23:16.728Z,1015.19
2022-08-23T00:24:17.904Z,1015.23
2022-08-23T00:25:16.306Z,1015.21
2022-08-23T00:26:20.446Z,1015.24
2022-08-23T00:27:16.879Z,1015.23
2022-08-23T00:28:17.196Z,1015.22
2022-08-23T00:29:17.509Z,1015.29
2022-08-23T00:30:17.818Z,1015.24
2022-08-23T00:31:21.515Z,1015.24
2022-08-23T00:32:18.427Z,1015.22
2022-08-23T00:33:20.613Z,1015.29
2022-08-23T00:34:19.002Z,1015.23
2022-08-23T00:35:27.011Z,1015.29
2022-08-23T00:36:23.670Z,1015.26
2022-08-23T00:37:19.963Z,1015.25
2022-08-23T00:38:33.905Z,1015.27
2022-08-23T00:39:21.592Z,1015.24
2022-08-23T00:40:20.876Z,1015.24
2022-08-23T00:41:24.204Z,1015.24
2022-08-23T00:42:21.473Z,1015.24
2022-08-23T00:43:25.708Z,1015.21
2022-08-23T00:44:22.123Z,1015.24
2022-08-23T00:45:22.439Z,1015.25
2022-08-23T00:46:25.766Z,1015.24
2022-08-23T00:47:24.847Z,1015.27
2022-08-23T00:48:23.380Z,1015.21
2022-08-23T00:49:23.698Z,1015.18
2022-08-23T00:50:24.411Z,1015.24
2022-08-23T00:51:27.532Z,1015.18
2022-08-23T00:52:24.556Z,1015.20
2022-08-23T00:53:24.869Z,1015.20
2022-08-23T00:54:25.175Z,1015.23
2022-08-23T00:55:25.496Z,1015.18
2022-08-23T00:56:28.652Z,1015.16
2022-08-23T00:57:26.062Z,1015.19
2022-08-23T00:58:26.384Z,1015.14
2022-08-23T00:59:26.696Z,1015.24
2022-08-23T01:00:26.993Z,1015.22
2022-08-23T01:01:28.843Z,1015.19
2022-08-23T01:02:29.563Z,1015.17
2022-08-23T01:03:28.741Z,1015.17
2022-08-23T01:04:29.124Z,1015.19
2022-08-23T01:05:29.322Z,1015.18
2022-08-23T01:06:29.470Z,1015.21
2022-08-23T01:07:30.903Z,1015.17
2022-08-23T01:08:31.068Z,1015.18
2022-08-23T01:09:31.266Z,1015.20
2022-08-23T01:10:29.772Z,1015.19
2022-08-23T01:11:31.039Z,1015.09
2022-08-23T01:12:34.356Z,1015.15
2022-08-23T01:13:32.584Z,1015.18
2022-08-23T01:14:30.976Z,1015.19
2022-08-23T01:15:31.279Z,1015.21
2022-08-23T01:16:34.657Z,1015.19
2022-08-23T01:17:31.817Z,1015.22
2022-08-23T01:18:32.143Z,1015.16
2022-08-23T01:19:32.454Z,1015.17
2022-08-23T01:20:32.805Z,1015.12
2022-08-23T01:21:36.998Z,1015.12
2022-08-23T01:22:35.218Z,1015.16
2022-08-23T01:23:33.601Z,1015.13
2022-08-23T01:25:06.397Z,1015.09
2022-08-23T01:25:35.209Z,1015.16
2022-08-23T01:26:37.539Z,1015.16
2022-08-23T01:27:36.619Z,1015.13
2022-08-23T01:28:36.801Z,1015.16
2022-08-23T01:29:37.009Z,1015.09
2022-08-23T01:30:37.212Z,1015.14
2022-08-23T01:31:39.903Z,1015.14
2022-08-23T01:32:38.119Z,1015.06
2022-08-23T01:33:38.308Z,1015.11
2022-08-23T01:34:45.389Z,1015.16
2022-08-23T01:35:39.732Z,1015.10
2022-08-23T01:36:40.440Z,1015.04
2022-08-23T01:37:39.679Z,1015.15
2022-08-23T01:38:38.070Z,1015.11
2022-08-23T01:39:38.391Z,1015.16
2022-08-23T01:40:40.583Z,1015.09
2022-08-23T01:41:41.997Z,1015.09
2022-08-23T01:42:40.950Z,1015.09
2022-08-23T01:43:41.130Z,1015.10
2022-08-23T01:44:41.836Z,1015.12
2022-08-23T01:45:42.042Z,1015.10
2022-08-23T01:46:41.503Z,1015.05
2022-08-23T01:47:42.847Z,1015.13
2022-08-23T01:48:43.104Z,1015.07
2022-08-23T01:49:43.188Z,1015.09
2022-08-23T01:50:43.400Z,1015.12
2022-08-23T01:51:43.071Z,1014.98
2022-08-23T01:52:47.156Z,1015.07
2022-08-23T01:53:44.609Z,1015.03
2022-08-23T01:54:44.828Z,1015.04
2022-08-23T01:55:44.988Z,1015.08
2022-08-23T01:56:45.135Z,1015.03
2022-08-23T01:57:47.760Z,1015.06
2022-08-23T01:58:46.064Z,1015.09
2022-08-23T01:59:46.279Z,1015.04
2022-08-23T02:00:46.443Z,1015.05
2022-08-23T02:01:47.089Z,1015.06
2022-08-23T02:02:47.290Z,1015.01
2022-08-23T02:03:45.660Z,1015.08
2022-08-23T02:04:45.904Z,1015.07
2022-08-23T02:05:48.163Z,1015.00
2022-08-23T02:06:48.059Z,1015.00
2022-08-23T02:07:46.816Z,1015.01
2022-08-23T02:08:47.124Z,1015.00
2022-08-23T02:09:47.436Z,1014.95
2022-08-23T02:10:49.717Z,1014.91
2022-08-23T02:11:51.139Z,1014.94
2022-08-23T02:12:50.038Z,1014.94
2022-08-23T02:13:50.210Z,1014.92
2022-08-23T02:14:50.377Z,1014.93
2022-08-23T02:15:51.067Z,1014.91
2022-08-23T02:17:03.644Z,1014.93
2022-08-23T02:17:51.707Z,1014.90
2022-08-23T02:18:51.859Z,1014.91
2022-08-23T02:19:52.052Z,1014.87
2022-08-23T02:20:52.230Z,1014.92
2022-08-23T02:21:50.919Z,1014.91
2022-08-23T02:22:53.081Z,1014.94
2022-08-23T02:23:53.248Z,1014.96
2022-08-23T02:24:53.449Z,1014.93
2022-08-23T02:25:53.656Z,1014.98
2022-08-23T02:26:56.630Z,1014.88
2022-08-23T02:27:52.626Z,1014.91
2022-08-23T02:28:54.809Z,1014.95
2022-08-23T02:29:54.997Z,1014.95
2022-08-23T02:30:53.602Z,1014.94
2022-08-23T02:31:55.842Z,1014.93
2022-08-23T02:32:54.184Z,1014.93
2022-08-23T02:35:12.113Z,1014.94
2022-08-23T02:36:11.396Z,1014.95
2022-08-23T02:37:10.829Z,1014.92
2022-08-23T02:38:11.083Z,1014.87
2022-08-23T02:39:11.336Z,1014.90
2022-08-23T02:40:13.623Z,1014.90
2022-08-23T02:41:12.683Z,1014.90
2022-08-23T02:42:12.155Z,1014.91
2022-08-23T02:43:12.409Z,1014.93
2022-08-23T02:44:12.651Z,1014.91
2022-08-23T02:45:14.888Z,1014.91
2022-08-23T02:46:13.986Z,1014.94
2022-08-23T02:47:13.460Z,1014.94
2022-08-23T02:48:13.715Z,1014.95
2022-08-23T02:49:15.942Z,1014.91
2022-08-23T02:50:14.291Z,1014.89
2022-08-23T02:51:15.299Z,1014.95
2022-08-23T02:52:16.820Z,1014.94
2022-08-23T02:53:17.088Z,1014.92
2022-08-23T02:54:15.531Z,1014.97
2022-08-23T02:55:17.698Z,1015.01
2022-08-23T02:56:21.417Z,1014.96
2022-08-23T02:57:16.351Z,1014.99
2022-08-23T02:58:16.600Z,1014.97
2022-08-23T02:59:16.854Z,1014.93
2022-08-23T03:00:19.070Z,1014.96
2022-08-23T03:01:17.442Z,1014.97
2022-08-23T03:02:17.722Z,1014.97
2022-08-23T03:03:17.995Z,1014.97
2022-08-23T03:04:18.245Z,1014.91
2022-08-23T03:05:20.498Z,1014.95
2022-08-23T03:06:25.716Z,1014.97
2022-08-23T03:07:19.113Z,1015.00
2022-08-23T03:08:19.365Z,1015.01
2022-08-23T03:09:21.597Z,1014.96
2022-08-23T03:10:21.848Z,1015.00
2022-08-23T03:11:21.057Z,1015.03
2022-08-23T03:12:20.514Z,1015.01
2022-08-23T03:13:20.774Z,1014.95
2022-08-23T03:14:23.019Z,1015.02
2022-08-23T03:15:23.293Z,1014.98
2022-08-23T03:16:22.370Z,1015.01
2022-08-23T03:17:23.908Z,1015.00
2022-08-23T03:18:22.238Z,1015.05
2022-08-23T03:19:24.479Z,1015.06
2022-08-23T03:20:22.825Z,1015.00
2022-08-23T03:21:24.044Z,1015.03
2022-08-23T03:22:25.355Z,1015.05
2022-08-23T03:23:23.715Z,1015.04
2022-08-23T03:24:25.935Z,1015.05
2022-08-23T03:25:24.286Z,1015.07
2022-08-23T03:26:24.749Z,1015.03
2022-08-23T03:27:24.831Z,1015.01
2022-08-23T03:28:25.072Z,1015.04
2022-08-23T03:29:27.310Z,1015.07
2022-08-23T03:30:25.641Z,1015.06
2022-08-23T03:31:30.517Z,1015.07
2022-08-23T03:32:26.108Z,1015.01
2022-08-23T03:33:29.752Z,1015.04
2022-08-23T03:34:29.932Z,1015.04
2022-08-23T03:35:27.973Z,1015.08
2022-08-23T03:36:30.184Z,1015.06
2022-08-23T03:37:28.291Z,1015.09
2022-08-23T03:38:29.620Z,1015.09
2022-08-23T03:39:29.841Z,1015.05
2022-08-23T03:40:29.307Z,1015.08
2022-08-23T03:41:31.753Z,1015.06
2022-08-23T03:42:30.793Z,1015.11
2022-08-23T03:43:30.155Z,1015.06
2022-08-23T03:44:32.885Z,1015.06
2022-08-23T03:45:30.599Z,1015.06
2022-08-23T03:46:34.128Z,1015.08
2022-08-23T03:47:31.426Z,1015.05
2022-08-23T03:48:31.584Z,1015.12
2022-08-23T03:49:33.006Z,1015.08
2022-08-23T03:50:33.190Z,1015.05
2022-08-23T03:51:34.627Z,1015.07
2022-08-23T03:52:33.595Z,1015.09
2022-08-23T03:53:34.316Z,1015.07
2022-08-23T03:54:34.576Z,1015.04
2022-08-23T03:55:34.802Z,1015.04
2022-08-23T03:56:37.979Z,1015.04
2022-08-23T03:57:33.428Z,1015.07
2022-08-23T03:58:33.746Z,1015.14
2022-08-23T03:59:34.966Z,1015.15
2022-08-23T04:00:36.180Z,1015.16
2022-08-23T04:01:35.484Z,1015.15
2022-08-23T04:02:36.883Z,1015.18
2022-08-23T04:03:35.157Z,1015.16
2022-08-23T04:04:37.342Z,1015.17
2022-08-23T04:05:35.750Z,1015.16
2022-08-23T04:06:39.110Z,1015.19
2022-08-23T04:07:36.416Z,1015.17
2022-08-23T04:08:36.737Z,1015.18
2022-08-23T04:09:38.918Z,1015.20
2022-08-23T04:10:39.315Z,1015.18
2022-08-23T04:11:40.641Z,1015.21
2022-08-23T04:12:37.941Z,1015.19
2022-08-23T04:13:38.267Z,1015.20
2022-08-23T04:14:38.630Z,1015.18
2022-08-23T04:15:40.799Z,1015.18
2022-08-23T04:16:40.637Z,1015.18
2022-08-23T04:17:40.607Z,1015.22
2022-08-23T04:18:39.722Z,1015.18
2022-08-23T04:19:40.082Z,1015.23
2022-08-23T04:20:42.238Z,1015.21
2022-08-23T04:21:44.483Z,1015.23
2022-08-23T04:22:41.011Z,1015.27
2022-08-23T04:23:43.097Z,1015.23
2022-08-23T04:24:41.500Z,1015.25
2022-08-23T04:25:43.724Z,1015.23
2022-08-23T04:26:43.665Z,1015.23
2022-08-23T04:27:42.372Z,1015.26
2022-08-23T04:28:44.531Z,1015.27
2022-08-23T04:29:42.953Z,1015.26
2022-08-23T04:30:45.248Z,1015.25
2022-08-23T04:31:45.067Z,1015.25
2022-08-23T04:32:43.832Z,1015.25
2022-08-23T04:33:44.212Z,1015.30
2022-08-23T04:34:45.318Z,1015.32
2022-08-23T04:35:46.627Z,1015.36
2022-08-23T04:36:51.856Z,1015.36
2022-08-23T04:37:46.257Z,1015.38
2022-08-23T04:38:45.529Z,1015.38
2022-08-23T04:39:45.892Z,1015.42
2022-08-23T04:40:47.096Z,1015.39
2022-08-23T04:41:47.233Z,1015.41
2022-08-23T04:42:48.574Z,1015.41
2022-08-23T04:43:46.878Z,1015.37
2022-08-23T04:44:47.104Z,1015.40
2022-08-23T04:45:47.342Z,1015.39
2022-08-23T04:46:48.546Z,1015.42
2022-08-23T04:47:47.834Z,1015.43
2022-08-23T04:48:50.026Z,1015.42
2022-08-23T04:49:48.326Z,1015.41
2022-08-23T04:50:48.550Z,1015.39
2022-08-23T04:51:53.818Z,1015.39
2022-08-23T04:52:52.117Z,1015.45
2022-08-23T04:53:49.456Z,1015.43
2022-08-23T04:54:51.670Z,1015.43
2022-08-23T04:55:49.970Z,1015.42
2022-08-23T04:56:54.143Z,1015.43
2022-08-23T04:57:50.468Z,1015.49
2022-08-23T04:58:52.648Z,1015.48
2022-08-23T04:59:51.074Z,1015.47
2022-08-23T05:00:53.295Z,1015.48
2022-08-23T05:01:53.445Z,1015.47
2022-08-23T05:02:51.888Z,1015.45
2022-08-23T05:03:52.117Z,1015.50
2022-08-23T05:04:52.426Z,1015.49
2022-08-23T05:05:52.782Z,1015.48
2022-08-23T05:06:54.963Z,1015.49
2022-08-23T05:07:53.259Z,1015.47
2022-08-23T05:08:55.431Z,1015.46
2022-08-23T05:09:53.741Z,1015.48
2022-08-23T05:10:53.963Z,1015.52
2022-08-23T05:11:56.167Z,1015.51
2022-08-23T05:12:58.312Z,1015.56
2022-08-23T05:13:56.531Z,1015.55
2022-08-23T05:14:59.234Z,1015.51
2022-08-23T05:15:55.442Z,1015.52
2022-08-23T05:16:55.768Z,1015.56
2022-08-23T05:17:57.904Z,1015.54
2022-08-23T05:18:58.068Z,1015.55
2022-08-23T05:19:57.414Z,1015.58
2022-08-23T05:20:56.835Z,1015.56
2022-08-23T05:21:57.372Z,1015.54
2022-08-23T05:22:57.314Z,1015.55
2022-08-23T05:23:57.566Z,1015.59
2022-08-23T05:24:59.742Z,1015.59
2022-08-23T05:25:58.044Z,1015.59
2022-08-23T05:27:01.700Z,1015.59
2022-08-23T05:27:58.518Z,1015.60
2022-08-23T05:28:58.741Z,1015.62
2022-08-23T05:30:00.937Z,1015.56
2022-08-23T05:30:59.235Z,1015.62
2022-08-23T05:32:01.424Z,1015.65
2022-08-23T05:32:59.862Z,1015.69
2022-08-23T05:34:02.010Z,1015.67
2022-08-23T05:35:00.443Z,1015.63
2022-08-23T05:36:02.615Z,1015.71
2022-08-23T05:37:00.917Z,1015.66
2022-08-23T05:38:01.316Z,1015.70
2022-08-23T05:39:05.303Z,1015.68
2022-08-23T05:40:05.061Z,1015.71
2022-08-23T05:41:06.903Z,1015.70
2022-08-23T05:42:03.242Z,1015.74
2022-08-23T05:43:06.432Z,1015.71
2022-08-23T05:44:03.572Z,1015.65
2022-08-23T05:45:06.198Z,1015.70
2022-08-23T05:46:04.128Z,1015.65
2022-08-23T05:47:10.411Z,1015.77
2022-08-23T05:48:04.802Z,1015.72
2022-08-23T05:49:04.092Z,1015.75
2022-08-23T05:50:04.321Z,1015.73
2022-08-23T05:51:04.546Z,1015.74
2022-08-23T05:52:04.893Z,1015.74
2022-08-23T05:53:07.073Z,1015.75
2022-08-23T05:54:05.487Z,1015.77
2022-08-23T05:55:05.713Z,1015.81
2022-08-23T05:56:07.902Z,1015.77
2022-08-23T05:57:08.073Z,1015.78
2022-08-23T05:58:08.268Z,1015.77
2022-08-23T05:59:12.570Z,1015.73
2022-08-23T06:00:09.129Z,1015.76
2022-08-23T06:01:09.321Z,1015.78
2022-08-23T06:02:09.473Z,1015.79
2022-08-23T06:03:09.642Z,1015.76
2022-08-23T06:04:09.312Z,1015.85
2022-08-23T06:05:10.501Z,1015.83
2022-08-23T06:06:10.662Z,1015.77
2022-08-23T06:07:10.847Z,1015.79
2022-08-23T06:08:11.080Z,1015.83
2022-08-23T06:09:09.744Z,1015.80
2022-08-23T06:10:15.872Z,1015.79
2022-08-23T06:11:11.118Z,1015.83
2022-08-23T06:12:10.514Z,1015.79
2022-08-23T06:13:12.699Z,1015.81
2022-08-23T06:14:13.078Z,1015.78
2022-08-23T06:15:13.128Z,1015.84
2022-08-23T06:16:14.957Z,1015.83
2022-08-23T06:17:13.482Z,1015.86
2022-08-23T06:18:14.136Z,1015.85
2022-08-23T06:19:13.252Z,1015.84
2022-08-23T06:20:14.668Z,1015.86
2022-08-23T06:21:12.934Z,1015.88
2022-08-23T06:22:15.120Z,1015.88
2022-08-23T06:23:13.539Z,1015.90
2022-08-23T06:24:14.820Z,1015.88
2022-08-23T06:25:16.195Z,1015.91
2022-08-23T06:26:14.478Z,1015.89
2022-08-23T06:27:16.661Z,1015.94
2022-08-23T06:28:16.928Z,1015.93
2022-08-23T06:29:17.235Z,1015.92
2022-08-23T06:30:17.246Z,1015.96
2022-08-23T06:31:17.486Z,1015.99
2022-08-23T06:32:18.153Z,1016.03
2022-08-23T06:33:18.337Z,1016.00
2022-08-23T06:34:20.503Z,1015.94
2022-08-23T06:35:38.765Z,1015.99
2022-08-23T06:36:19.925Z,1016.05
2022-08-23T06:37:19.612Z,1016.06
2022-08-23T06:38:17.914Z,1016.03
2022-08-23T06:39:22.145Z,1016.01
2022-08-23T06:40:20.420Z,1016.09
2022-08-23T06:41:18.748Z,1016.06
2022-08-23T06:43:20.269Z,1016.10
2022-08-23T06:44:22.626Z,1016.09
2022-08-23T06:45:19.825Z,1016.09
2022-08-23T06:46:23.474Z,1016.07
2022-08-23T06:47:23.175Z,1016.09
2022-08-23T06:48:20.641Z,1016.12
2022-08-23T06:49:22.349Z,1016.12
2022-08-23T06:50:23.097Z,1016.12
2022-08-23T06:51:23.276Z,1016.10
2022-08-23T06:52:23.466Z,1016.09
2022-08-23T06:53:22.055Z,1016.12
2022-08-23T06:54:23.201Z,1016.18
2022-08-23T06:55:24.585Z,1016.16
2022-08-23T06:56:24.774Z,1016.10
2022-08-23T06:57:24.969Z,1016.09
2022-08-23T06:58:23.557Z,1016.07
2022-08-23T06:59:24.772Z,1016.10
2022-08-23T07:00:24.078Z,1016.09
2022-08-23T07:01:44.679Z,1016.16
2022-08-23T07:02:25.681Z,1016.12
2022-08-23T07:03:24.870Z,1016.08
2022-08-23T07:04:28.149Z,1016.12
2022-08-23T07:05:27.257Z,1016.12
2022-08-23T07:06:25.568Z,1016.06
2022-08-23T07:07:39.711Z,1016.06
2022-08-23T07:08:27.088Z,1016.08
2022-08-23T07:09:29.447Z,1016.09
2022-08-23T07:10:26.652Z,1016.06
2022-08-23T07:11:28.850Z,1016.11
2022-08-23T07:12:29.055Z,1016.18
2022-08-23T07:13:29.243Z,1016.11
2022-08-23T07:14:28.703Z,1016.14
2022-08-23T07:15:29.594Z,1016.16
2022-08-23T07:16:28.311Z,1016.18
2022-08-23T07:17:30.464Z,1016.19
2022-08-23T07:18:28.769Z,1016.14
2022-08-23T07:19:30.529Z,1016.18
2022-08-23T07:20:31.367Z,1016.20
2022-08-23T07:21:29.552Z,1016.18
2022-08-23T07:22:31.732Z,1016.15
2022-08-23T07:23:30.071Z,1016.19
2022-08-23T07:24:34.045Z,1016.14
2022-08-23T07:25:31.489Z,1016.19
2022-08-23T07:26:30.807Z,1016.19
2022-08-23T07:27:31.040Z,1016.25
2022-08-23T07:28:31.273Z,1016.20
2022-08-23T07:29:32.382Z,1016.26
2022-08-23T07:30:33.725Z,1016.23
2022-08-23T07:31:32.106Z,1016.24
2022-08-23T07:32:32.335Z,1016.34
2022-08-23T07:33:32.574Z,1016.26
2022-08-23T07:34:36.008Z,1016.30
2022-08-23T07:35:40.099Z,1016.26
2022-08-23T07:36:34.545Z,1016.30
2022-08-23T07:37:33.851Z,1016.30
2022-08-23T07:38:34.082Z,1016.32
2022-08-23T07:39:38.249Z,1016.36
2022-08-23T07:40:39.087Z,1016.35
2022-08-23T07:41:35.258Z,1016.34
2022-08-23T07:42:38.481Z,1016.28
2022-08-23T07:43:35.436Z,1016.32
2022-08-23T07:44:38.624Z,1016.32
2022-08-23T07:45:39.801Z,1016.30
2022-08-23T07:46:36.191Z,1016.34
2022-08-23T07:47:37.312Z,1016.36
2022-08-23T07:48:53.527Z,1016.31
2022-08-23T07:49:38.911Z,1016.39
2022-08-23T07:50:38.781Z,1016.34
2022-08-23T07:51:38.468Z,1016.34
2022-08-23T07:52:39.684Z,1016.38
2022-08-23T07:53:38.304Z,1016.45
2022-08-23T07:54:39.202Z,1016.42
2022-08-23T07:55:38.617Z,1016.43
2022-08-23T07:56:40.791Z,1016.46
2022-08-23T07:57:39.117Z,1016.49
2022-08-23T07:58:39.358Z,1016.53
2022-08-23T07:59:40.589Z,1016.53
2022-08-23T08:00:40.673Z,1016.58
2022-08-23T08:01:43.635Z,1016.58
2022-08-23T08:02:41.291Z,1016.52
2022-08-23T08:03:41.410Z,1016.52
2022-08-23T08:04:43.877Z,1016.58
2022-08-23T08:05:41.988Z,1016.55
2022-08-23T08:06:42.826Z,1016.59
2022-08-23T08:07:42.560Z,1016.57
2022-08-23T08:08:42.720Z,1016.57
2022-08-23T08:09:45.190Z,1016.61
2022-08-23T08:10:43.299Z,1016.63
2022-08-23T08:11:44.679Z,1016.68
2022-08-23T08:12:42.995Z,1016.64
2022-08-23T08:13:43.239Z,1016.76
2022-08-23T08:14:46.500Z,1016.71
2022-08-23T08:15:44.644Z,1016.72
2022-08-23T08:16:45.973Z,1016.80
2022-08-23T08:17:46.178Z,1016.80
2022-08-23T08:18:46.330Z,1016.77
2022-08-23T08:19:45.763Z,1016.85
2022-08-23T08:20:47.182Z,1016.83
2022-08-23T08:21:47.400Z,1016.80
2022-08-23T08:22:48.546Z,1016.78
2022-08-23T08:23:46.133Z,1016.70
2022-08-23T08:24:47.333Z,1016.69
2022-08-23T08:25:46.648Z,1016.72
2022-08-23T08:26:48.821Z,1016.67
2022-08-23T08:27:47.140Z,1016.73
2022-08-23T08:28:47.385Z,1016.66
2022-08-23T08:29:49.122Z,1016.74
2022-08-23T08:30:49.849Z,1016.67
2022-08-23T08:31:51.321Z,1016.69
2022-08-23T08:32:51.361Z,1016.69
2022-08-23T08:33:48.685Z,1016.69
2022-08-23T08:34:50.409Z,1016.63
2022-08-23T08:35:59.026Z,1016.64
2022-08-23T08:36:52.335Z,1016.67
2022-08-23T08:37:51.517Z,1016.63
2022-08-23T08:38:54.347Z,1016.67
2022-08-23T08:39:53.387Z,1016.65
2022-08-23T08:40:52.556Z,1016.67
2022-08-23T08:41:54.114Z,1016.67
2022-08-23T08:42:52.216Z,1016.72
2022-08-23T08:43:51.516Z,1016.72
2022-08-23T08:44:53.716Z,1016.71
2022-08-23T08:45:58.956Z,1016.71
2022-08-23T08:46:55.058Z,1016.71
2022-08-23T08:47:54.250Z,1016.70
2022-08-23T08:48:54.951Z,1016.69
2022-08-23T08:49:55.138Z,1016.66
2022-08-23T08:50:53.564Z,1016.61
2022-08-23T08:51:55.751Z,1016.65
2022-08-23T08:52:55.918Z,1016.66
2022-08-23T08:53:54.355Z,1016.66
2022-08-23T08:54:55.735Z,1016.63
2022-08-23T08:55:54.833Z,1016.61
2022-08-23T08:56:57.002Z,1016.79
2022-08-23T08:57:57.239Z,1016.77
2022-08-23T08:58:55.591Z,1016.78
2022-08-23T08:59:57.774Z,1016.82
2022-08-23T09:00:56.687Z,1016.74
2022-08-23T09:01:56.401Z,1016.58
2022-08-23T09:02:58.605Z,1016.60
2022-08-23T09:03:58.743Z,1016.76
2022-08-23T09:04:58.948Z,1016.77
2022-08-23T09:05:57.525Z,1016.77
2022-08-23T09:06:59.702Z,1016.76
2022-08-23T09:07:58.025Z,1016.73
2022-08-23T09:08:58.257Z,1016.76
2022-08-23T09:09:58.526Z,1016.72
2022-08-23T09:10:58.811Z,1016.72
2022-08-23T09:12:00.960Z,1016.71
2022-08-23T09:12:59.254Z,1016.70
2022-08-23T09:13:59.494Z,1016.68
2022-08-23T09:15:01.673Z,1016.70
2022-08-23T09:15:59.999Z,1016.69
2022-08-23T09:17:00.228Z,1016.67
2022-08-23T09:18:00.691Z,1016.73
2022-08-23T09:19:00.807Z,1016.70
2022-08-23T09:20:01.063Z,1016.71
2022-08-23T09:21:03.242Z,1016.73
2022-08-23T09:22:01.567Z,1016.70
2022-08-23T09:23:03.915Z,1016.75
2022-08-23T09:24:02.109Z,1016.75
2022-08-23T09:25:02.369Z,1016.81
2022-08-23T09:26:03.869Z,1016.74
2022-08-23T09:27:02.957Z,1016.80
2022-08-23T09:28:05.135Z,1016.80
2022-08-23T09:29:04.484Z,1016.77
2022-08-23T09:30:03.787Z,1016.77
2022-08-23T09:31:04.375Z,1016.83
2022-08-23T09:32:04.271Z,1016.78
2022-08-23T09:33:06.454Z,1016.77
2022-08-23T09:34:05.797Z,1016.81
2022-08-23T09:35:06.212Z,1016.82
2022-08-23T09:36:05.283Z,1016.74
2022-08-23T09:37:06.541Z,1016.80
2022-08-23T09:38:07.748Z,1016.84
2022-08-23T09:39:09.159Z,1016.78
2022-08-23T09:40:06.386Z,1016.84
2022-08-23T09:41:06.600Z,1016.82
2022-08-23T09:42:06.847Z,1016.85
2022-08-23T09:43:10.035Z,1016.86
2022-08-23T09:44:10.473Z,1016.74
2022-08-23T09:45:07.668Z,1016.58
2022-08-23T09:46:07.963Z,1016.60
2022-08-23T09:47:08.176Z,1016.47
2022-08-23T09:48:08.422Z,1016.55
2022-08-23T09:49:12.594Z,1016.64
2022-08-23T09:50:08.940Z,1016.56
2022-08-23T09:51:09.196Z,1016.51
2022-08-23T09:52:09.442Z,1016.63
2022-08-23T09:53:11.629Z,1016.62
2022-08-23T09:54:13.805Z,1016.69
2022-08-23T09:55:10.255Z,1016.66
2022-08-23T09:56:10.504Z,1016.68
2022-08-23T09:57:10.763Z,1016.60
2022-08-23T09:58:12.933Z,1016.61
2022-08-23T09:59:15.108Z,1016.59
2022-08-23T10:00:11.565Z,1016.62
2022-08-23T10:01:11.892Z,1016.58
2022-08-23T10:02:12.149Z,1016.60
2022-08-23T10:03:14.298Z,1016.58
2022-08-23T10:04:13.703Z,1016.62
2022-08-23T10:05:15.977Z,1016.60
2022-08-23T10:06:13.310Z,1016.58
2022-08-23T10:07:17.457Z,1016.62
2022-08-23T10:08:15.758Z,1016.59
2022-08-23T10:09:17.930Z,1016.69
2022-08-23T10:10:16.163Z,1016.69
2022-08-23T10:11:14.720Z,1016.73
2022-08-23T10:12:14.964Z,1016.68
2022-08-23T10:13:15.311Z,1016.66
2022-08-23T10:14:17.034Z,1016.67
2022-08-23T10:15:17.748Z,1016.68
2022-08-23T10:16:16.212Z,1016.65
2022-08-23T10:17:19.792Z,1016.74
2022-08-23T10:18:16.758Z,1016.72
2022-08-23T10:19:17.861Z,1016.71
2022-08-23T10:20:20.677Z,1016.68
2022-08-23T10:21:20.960Z,1016.75
2022-08-23T10:22:19.873Z,1016.65
2022-08-23T10:23:18.187Z,1016.65
2022-08-23T10:24:21.476Z,1016.65
2022-08-23T10:25:22.005Z,1016.63
2022-08-23T10:26:22.204Z,1016.66
2022-08-23T10:27:20.161Z,1016.68
2022-08-23T10:28:19.588Z,1016.62
2022-08-23T10:29:21.326Z,1016.63
2022-08-23T10:30:22.052Z,1016.64
2022-08-23T10:31:21.362Z,1016.62
2022-08-23T10:32:21.488Z,1016.71
2022-08-23T10:33:22.827Z,1016.67
2022-08-23T10:34:22.808Z,1016.59
2022-08-23T10:35:23.032Z,1016.65
2022-08-23T10:36:21.893Z,1016.61
2022-08-23T10:37:21.973Z,1016.62
2022-08-23T10:38:23.172Z,1016.65
2022-08-23T10:39:23.954Z,1016.66
2022-08-23T10:40:23.752Z,1016.77
2022-08-23T10:41:23.046Z,1016.47
2022-08-23T10:42:23.297Z,1016.45
2022-08-23T10:43:23.747Z,1016.60
2022-08-23T10:44:25.794Z,1016.60
2022-08-23T10:45:25.961Z,1016.65
2022-08-23T10:46:26.171Z,1016.67
2022-08-23T10:47:26.468Z,1016.72
2022-08-23T10:48:27.883Z,1016.69
2022-08-23T10:49:25.325Z,1016.68
2022-08-23T10:50:27.509Z,1016.64
2022-08-23T10:51:31.913Z,1016.63
2022-08-23T10:52:26.072Z,1016.67
2022-08-23T10:53:30.234Z,1016.63
2022-08-23T10:54:28.447Z,1016.65
2022-08-23T10:55:28.603Z,1016.67
2022-08-23T10:56:28.790Z,1016.55
2022-08-23T10:57:29.470Z,1016.72
2022-08-23T10:58:31.655Z,1016.72
2022-08-23T10:59:29.875Z,1016.66
2022-08-23T11:00:30.044Z,1016.70
2022-08-23T11:01:30.780Z,1016.74
2022-08-23T11:02:30.970Z,1016.69
2022-08-23T11:03:32.327Z,1016.65
2022-08-23T11:04:31.254Z,1016.65
2022-08-23T11:05:31.941Z,1016.72
2022-08-23T11:06:32.135Z,1016.76
2022-08-23T11:07:32.318Z,1016.68
2022-08-23T11:08:31.853Z,1016.64
2022-08-23T11:09:31.153Z,1016.71
2022-08-23T11:10:31.400Z,1016.64
2022-08-23T11:11:33.595Z,1016.55
2022-08-23T11:12:31.910Z,1016.67
2022-08-23T11:13:33.182Z,1016.62
2022-08-23T11:14:32.451Z,1016.55
2022-08-23T11:15:32.716Z,1016.65
2022-08-23T11:16:34.434Z,1016.57
2022-08-23T11:17:33.241Z,1016.57
2022-08-23T11:18:37.257Z,1016.56
2022-08-23T11:19:35.630Z,1016.62
2022-08-23T11:20:33.967Z,1016.60
2022-08-23T11:21:36.149Z,1016.68
2022-08-23T11:22:34.473Z,1016.67
2022-08-23T11:23:38.125Z,1016.56
2022-08-23T11:24:34.975Z,1016.55
2022-08-23T11:25:37.176Z,1016.65
2022-08-23T11:26:37.355Z,1016.61
2022-08-23T11:27:35.785Z,1016.72
2022-08-23T11:28:36.835Z,1016.64
2022-08-23T11:29:36.264Z,1016.64
2022-08-23T11:30:38.489Z,1016.62
2022-08-23T11:31:38.641Z,1016.58
2022-08-23T11:32:38.825Z,1016.63
2022-08-23T11:33:38.408Z,1016.66
2022-08-23T11:34:37.706Z,1016.63
2022-08-23T11:35:43.073Z,1016.60
2022-08-23T11:36:41.148Z,1016.64
2022-08-23T11:37:38.475Z,1016.72
2022-08-23T11:38:41.772Z,1016.64
2022-08-23T11:39:40.895Z,1016.69
2022-08-23T11:40:39.397Z,1016.69
2022-08-23T11:41:39.693Z,1016.56
2022-08-23T11:42:39.932Z,1016.67
2022-08-23T11:43:41.031Z,1016.63
2022-08-23T11:44:42.447Z,1016.66
2022-08-23T11:45:40.783Z,1016.68
2022-08-23T11:46:42.150Z,1016.72
2022-08-23T11:47:44.439Z,1016.64
2022-08-23T11:48:43.584Z,1016.63
2022-08-23T11:49:41.877Z,1016.58
2022-08-23T11:50:42.119Z,1016.69
2022-08-23T11:51:44.353Z,1016.69
2022-08-23T11:52:44.482Z,1016.61
2022-08-23T11:53:45.959Z,1016.49
2022-08-23T11:54:43.152Z,1016.58
2022-08-23T11:55:43.402Z,1016.54
2022-08-23T11:56:46.413Z,1016.60
2022-08-23T11:57:45.774Z,1016.60
2022-08-23T11:58:47.277Z,1016.56
2022-08-23T11:59:44.455Z,1016.66
2022-08-23T12:00:44.693Z,1016.61
2022-08-23T12:01:44.954Z,1016.65
2022-08-23T12:02:47.310Z,1016.66
2022-08-23T12:03:47.668Z,1016.59
2022-08-23T12:04:47.340Z,1016.66
2022-08-23T12:05:46.029Z,1016.61
2022-08-23T12:06:50.456Z,1016.63
2022-08-23T12:07:49.470Z,1016.58
2022-08-23T12:08:47.586Z,1016.59
2022-08-23T12:09:49.020Z,1016.64
2022-08-23T12:10:47.448Z,1016.57